createdAt,value
2019-01-09T00:01:14.814Z,4.10
2019-01-09T00:04:00.811Z,4.10
2019-01-09T00:06:47.266Z,4.10
2019-01-09T00:09:33.550Z,4.00
2019-01-09T00:12:19.845Z,4.00
2019-01-09T00:15:05.400Z,4.00
2019-01-09T00:17:51.473Z,4.10
2019-01-09T00:20:37.139Z,4.00
2019-01-09T00:23:22.996Z,4.00
2019-01-09T00:26:09.356Z,4.00
2019-01-09T00:28:55.282Z,4.00
2019-01-09T00:31:41.130Z,4.00
2019-01-09T00:34:27.138Z,4.00
2019-01-09T00:37:12.845Z,4.00
2019-01-09T00:39:58.860Z,4.00
2019-01-09T00:42:45.354Z,4.00
2019-01-09T00:45:31.451Z,4.00
2019-01-09T00:48:17.224Z,3.90
2019-01-09T00:51:03.213Z,3.90
2019-01-09T00:53:49.472Z,3.90
2019-01-09T00:56:35.511Z,4.00
2019-01-09T00:59:21.495Z,3.90
2019-01-09T01:02:54.599Z,3.90
2019-01-09T01:06:17.432Z,3.90
2019-01-09T01:09:33.618Z,3.90
2019-01-09T01:12:45.901Z,3.90
2019-01-09T01:16:28.451Z,3.90
2019-01-09T01:20:11.051Z,3.90
2019-01-09T01:23:27.499Z,3.90
2019-01-09T01:26:41.250Z,3.90
2019-01-09T01:30:08.470Z,3.90
2019-01-09T01:33:32.614Z,3.90
2019-01-09T01:36:35.955Z,3.90
2019-01-09T01:40:28.454Z,3.90
2019-01-09T01:43:42.707Z,3.90
2019-01-09T01:46:41.591Z,3.90
2019-01-09T01:49:43.106Z,3.90
2019-01-09T01:52:57.602Z,3.80
2019-01-09T01:56:18.516Z,3.80
2019-01-09T01:59:24.066Z,3.90
2019-01-09T02:02:48.147Z,3.80
2019-01-09T02:06:03.892Z,3.80
2019-01-09T02:09:12.173Z,3.80
2019-01-09T02:12:46.208Z,3.80
2019-01-09T02:16:21.354Z,3.80
2019-01-09T02:19:22.148Z,3.80
2019-01-09T02:22:43.334Z,3.70
2019-01-09T02:25:38.399Z,3.80
2019-01-09T02:29:15.077Z,3.70
2019-01-09T02:32:30.606Z,3.70
2019-01-09T02:35:16.785Z,3.70
2019-01-09T02:38:02.630Z,3.60
2019-01-09T02:40:48.387Z,3.70
2019-01-09T02:43:34.727Z,3.60
2019-01-09T02:46:23.387Z,3.60
2019-01-09T02:49:09.043Z,3.60
2019-01-09T02:51:54.597Z,3.60
2019-01-09T02:54:40.098Z,3.60
2019-01-09T02:57:25.343Z,3.60
2019-01-09T03:00:11.290Z,3.60
2019-01-09T03:02:57.286Z,3.60
2019-01-09T03:05:43.195Z,3.50
2019-01-09T03:08:29.687Z,3.60
2019-01-09T03:11:16.125Z,3.60
2019-01-09T03:14:02.308Z,3.60
2019-01-09T03:16:48.441Z,3.60
2019-01-09T03:19:34.270Z,3.60
2019-01-09T03:22:20.400Z,3.60
2019-01-09T03:25:06.590Z,3.50
2019-01-09T03:27:52.280Z,3.50
2019-01-09T03:30:38.107Z,3.50
2019-01-09T03:33:24.498Z,3.50
2019-01-09T03:36:10.710Z,3.50
2019-01-09T03:38:56.807Z,3.40
2019-01-09T03:41:42.471Z,3.40
2019-01-09T03:44:28.155Z,3.50
2019-01-09T03:47:14.310Z,3.50
2019-01-09T03:50:00.242Z,3.50
2019-01-09T03:52:45.996Z,3.50
2019-01-09T03:55:32.049Z,3.60
2019-01-09T03:58:17.627Z,3.60
2019-01-09T04:01:03.823Z,3.60
2019-01-09T04:03:49.383Z,3.60
2019-01-09T04:06:41.857Z,3.60
2019-01-09T04:09:22.793Z,3.60
2019-01-09T04:12:08.243Z,3.60
2019-01-09T04:14:54.083Z,3.70
2019-01-09T04:17:40.185Z,3.70
2019-01-09T04:20:26.078Z,3.70
2019-01-09T04:23:12.207Z,3.70
2019-01-09T04:25:57.756Z,3.70
2019-01-09T04:28:44.098Z,3.70
2019-01-09T04:31:29.705Z,3.70
2019-01-09T04:34:15.039Z,3.70
2019-01-09T04:37:00.561Z,3.70
2019-01-09T04:39:46.715Z,3.70
2019-01-09T04:42:32.545Z,3.70
2019-01-09T04:45:18.192Z,3.70
2019-01-09T04:48:04.026Z,3.70
2019-01-09T04:50:49.808Z,3.60
2019-01-09T04:53:35.427Z,3.60
2019-01-09T04:56:21.091Z,3.70
2019-01-09T04:59:06.466Z,3.60
2019-01-09T05:01:52.129Z,3.60
2019-01-09T05:04:37.566Z,3.70
2019-01-09T05:07:33.093Z,3.60
2019-01-09T05:10:18.548Z,3.70
2019-01-09T05:13:04.296Z,3.70
2019-01-09T05:15:49.899Z,3.70
2019-01-09T05:18:35.879Z,3.70
2019-01-09T05:21:21.346Z,3.70
2019-01-09T05:24:07.253Z,3.70
2019-01-09T05:26:52.709Z,3.70
2019-01-09T05:29:38.923Z,3.70
2019-01-09T05:32:25.010Z,3.60
2019-01-09T05:35:10.700Z,3.60
2019-01-09T05:37:56.288Z,3.60
2019-01-09T05:40:41.958Z,3.60
2019-01-09T05:43:27.953Z,3.60
2019-01-09T05:46:14.371Z,3.60
2019-01-09T05:49:00.027Z,3.60
2019-01-09T05:51:45.885Z,3.60
2019-01-09T05:54:31.816Z,3.60
2019-01-09T05:57:17.595Z,3.60
2019-01-09T06:00:03.879Z,3.60
2019-01-09T06:02:50.908Z,3.60
2019-01-09T06:05:36.546Z,3.50
2019-01-09T06:08:22.047Z,3.60
2019-01-09T06:11:08.265Z,3.50
2019-01-09T06:13:54.469Z,3.50
2019-01-09T06:16:40.465Z,3.50
2019-01-09T06:19:26.446Z,3.50
2019-01-09T06:22:12.605Z,3.60
2019-01-09T06:24:58.777Z,3.60
2019-01-09T06:27:44.532Z,3.60
2019-01-09T06:30:30.434Z,3.50
2019-01-09T06:33:16.171Z,3.50
2019-01-09T06:36:03.908Z,3.50
2019-01-09T06:38:49.410Z,3.50
2019-01-09T06:41:34.915Z,3.50
2019-01-09T06:44:22.758Z,3.50
2019-01-09T06:47:09.004Z,3.50
2019-01-09T06:49:54.919Z,3.50
2019-01-09T06:52:40.890Z,3.50
2019-01-09T06:55:26.914Z,3.50
2019-01-09T06:58:13.260Z,3.50
2019-01-09T07:00:59.142Z,3.50
2019-01-09T07:03:44.819Z,3.50
2019-01-09T07:06:30.427Z,3.50
2019-01-09T07:09:16.409Z,3.50
2019-01-09T07:12:02.478Z,3.50
2019-01-09T07:14:47.948Z,3.50
2019-01-09T07:17:33.915Z,3.50
2019-01-09T07:20:20.063Z,3.50
2019-01-09T07:23:06.042Z,3.50
2019-01-09T07:25:51.854Z,3.50
2019-01-09T07:28:37.565Z,3.60
2019-01-09T07:31:24.092Z,3.60
2019-01-09T07:34:10.344Z,3.50
2019-01-09T07:36:58.967Z,3.50
2019-01-09T07:39:45.503Z,3.50
2019-01-09T07:42:31.021Z,3.50
2019-01-09T07:45:17.000Z,3.50
2019-01-09T07:48:02.899Z,3.50
2019-01-09T07:50:48.749Z,3.50
2019-01-09T07:53:34.150Z,3.50
2019-01-09T07:56:19.734Z,3.50
2019-01-09T07:59:05.697Z,3.50
2019-01-09T08:01:52.109Z,3.60
2019-01-09T08:04:37.581Z,3.60
2019-01-09T08:07:23.341Z,3.60
2019-01-09T08:10:09.948Z,3.60
2019-01-09T08:12:55.642Z,3.50
2019-01-09T08:15:41.985Z,3.50
2019-01-09T08:18:27.962Z,3.50
2019-01-09T08:21:13.982Z,3.40
2019-01-09T08:23:59.998Z,3.40
2019-01-09T08:26:45.318Z,3.50
2019-01-09T08:29:31.359Z,3.50
2019-01-09T08:32:17.152Z,3.50
2019-01-09T08:35:06.588Z,3.50
2019-01-09T08:37:52.710Z,3.50
2019-01-09T08:40:38.371Z,3.50
2019-01-09T08:43:24.208Z,3.50
2019-01-09T08:46:10.626Z,3.60
2019-01-09T08:48:56.593Z,3.60
2019-01-09T08:51:42.667Z,3.60
2019-01-09T08:54:29.355Z,3.60
2019-01-09T08:57:15.055Z,3.60
2019-01-09T09:00:00.893Z,3.60
2019-01-09T09:02:46.305Z,3.60
2019-01-09T09:05:32.081Z,3.50
2019-01-09T09:08:18.968Z,3.50
2019-01-09T09:11:04.473Z,3.50
2019-01-09T09:13:50.202Z,3.50
2019-01-09T09:16:36.833Z,3.50
2019-01-09T09:19:22.870Z,3.40
2019-01-09T09:22:08.665Z,3.40
2019-01-09T09:24:54.462Z,3.40
2019-01-09T09:27:39.990Z,3.50
2019-01-09T09:30:25.981Z,3.60
2019-01-09T09:33:11.495Z,3.60
2019-01-09T09:35:56.981Z,3.60
2019-01-09T09:38:42.447Z,3.60
2019-01-09T09:41:27.933Z,3.60
2019-01-09T09:44:14.173Z,3.70
2019-01-09T09:46:59.894Z,3.70
2019-01-09T09:49:46.429Z,3.70
2019-01-09T09:52:32.814Z,3.80
2019-01-09T09:55:18.403Z,3.70
2019-01-09T09:58:05.853Z,3.70
2019-01-09T10:00:52.130Z,3.80
2019-01-09T10:03:37.907Z,3.80
2019-01-09T10:06:23.564Z,3.80
2019-01-09T10:09:10.199Z,3.90
2019-01-09T10:11:55.807Z,3.90
2019-01-09T10:14:42.122Z,3.90
2019-01-09T10:17:28.010Z,4.00
2019-01-09T10:20:15.101Z,3.90
2019-01-09T10:23:00.679Z,4.00
2019-01-09T10:25:46.586Z,3.90
2019-01-09T10:28:32.757Z,3.90
2019-01-09T10:31:18.279Z,3.70
2019-01-09T10:34:04.332Z,3.70
2019-01-09T10:36:50.527Z,3.70
2019-01-09T10:39:36.559Z,3.70
2019-01-09T10:42:22.324Z,3.70
2019-01-09T10:45:09.714Z,3.70
2019-01-09T10:47:55.442Z,3.70
2019-01-09T10:50:41.416Z,3.80
2019-01-09T10:53:27.382Z,3.90
2019-01-09T10:56:12.967Z,3.90
2019-01-09T10:58:58.698Z,3.90
2019-01-09T11:01:43.948Z,3.90
2019-01-09T11:04:29.794Z,3.90
2019-01-09T11:07:15.678Z,3.90
2019-01-09T11:10:01.924Z,3.90
2019-01-09T11:12:47.724Z,3.90
2019-01-09T11:15:35.956Z,4.00
2019-01-09T11:18:24.159Z,4.00
2019-01-09T11:21:10.084Z,4.00
2019-01-09T11:23:56.495Z,4.00
2019-01-09T11:26:42.172Z,3.90
2019-01-09T11:29:28.085Z,3.90
2019-01-09T11:32:13.751Z,4.00
2019-01-09T11:34:59.359Z,4.00
2019-01-09T11:37:45.694Z,4.00
2019-01-09T11:40:31.406Z,4.00
2019-01-09T11:43:17.376Z,4.00
2019-01-09T11:46:03.994Z,4.10
2019-01-09T11:48:49.773Z,4.00
2019-01-09T11:51:36.112Z,4.00
2019-01-09T11:54:21.604Z,4.00
2019-01-09T11:57:07.561Z,4.00
2019-01-09T11:59:53.837Z,3.90
2019-01-09T12:02:39.302Z,3.90
2019-01-09T12:05:25.259Z,4.00
2019-01-09T12:08:11.430Z,4.00
2019-01-09T12:10:57.372Z,4.00
2019-01-09T12:13:43.444Z,4.10
2019-01-09T12:16:29.050Z,4.00
2019-01-09T12:19:14.711Z,4.00
2019-01-09T12:22:03.503Z,4.00
2019-01-09T12:24:53.620Z,4.00
2019-01-09T12:27:36.907Z,4.00
2019-01-09T12:30:24.482Z,4.00
2019-01-09T12:33:10.166Z,4.00
2019-01-09T12:35:56.091Z,4.00
2019-01-09T12:38:42.001Z,4.10
2019-01-09T12:41:27.865Z,4.00
2019-01-09T12:44:13.778Z,4.00
2019-01-09T12:46:59.359Z,4.00
2019-01-09T12:49:45.046Z,4.00
2019-01-09T12:52:30.975Z,3.90
2019-01-09T12:55:16.980Z,4.00
2019-01-09T12:58:02.521Z,3.90
2019-01-09T13:00:48.287Z,4.00
2019-01-09T13:03:34.336Z,4.10
2019-01-09T13:06:20.101Z,4.10
2019-01-09T13:09:08.172Z,4.00
2019-01-09T13:11:54.267Z,3.90
2019-01-09T13:14:39.949Z,3.90
2019-01-09T13:17:25.796Z,3.90
2019-01-09T13:20:12.034Z,3.90
2019-01-09T13:22:57.755Z,3.90
2019-01-09T13:25:43.606Z,3.90
2019-01-09T13:28:29.636Z,3.90
2019-01-09T13:31:16.554Z,3.90
2019-01-09T13:34:02.243Z,3.90
2019-01-09T13:36:48.633Z,3.90
2019-01-09T13:39:35.153Z,4.00
2019-01-09T13:42:21.071Z,3.90
2019-01-09T13:45:08.876Z,3.90
2019-01-09T13:47:54.519Z,3.90
2019-01-09T13:50:40.403Z,3.90
2019-01-09T13:53:26.338Z,3.90
2019-01-09T13:56:11.808Z,3.90
2019-01-09T13:58:58.015Z,3.90
2019-01-09T14:01:44.477Z,3.90
2019-01-09T14:04:30.614Z,3.90
2019-01-09T14:07:16.766Z,3.90
2019-01-09T14:10:03.860Z,3.90
2019-01-09T14:12:50.123Z,3.90
2019-01-09T14:15:35.647Z,3.90
2019-01-09T14:18:21.331Z,3.90
2019-01-09T14:21:07.560Z,3.90
2019-01-09T14:23:53.576Z,3.90
2019-01-09T14:26:39.568Z,3.90
2019-01-09T14:29:25.017Z,3.90
2019-01-09T14:32:10.700Z,3.90
2019-01-09T14:34:56.215Z,3.90
2019-01-09T14:37:41.863Z,3.90
2019-01-09T14:40:27.660Z,3.90
2019-01-09T14:43:13.366Z,3.90
2019-01-09T14:45:59.139Z,3.90
2019-01-09T14:49:04.300Z,3.90
2019-01-09T14:51:50.019Z,3.90
2019-01-09T14:54:35.914Z,3.90
2019-01-09T14:57:21.933Z,3.90
2019-01-09T15:00:12.673Z,3.90
2019-01-09T15:02:58.636Z,3.90
2019-01-09T15:05:44.894Z,3.90
2019-01-09T15:08:30.755Z,3.90
2019-01-09T15:11:16.814Z,4.00
2019-01-09T15:14:02.495Z,3.90
2019-01-09T15:16:48.431Z,3.90
2019-01-09T15:19:34.107Z,3.90
2019-01-09T15:22:19.926Z,3.90
2019-01-09T15:25:06.901Z,3.90
2019-01-09T15:27:55.128Z,4.00
2019-01-09T15:30:41.442Z,3.90
2019-01-09T15:33:27.556Z,3.90
2019-01-09T15:36:13.428Z,4.00
2019-01-09T15:38:59.212Z,4.00
2019-01-09T15:41:45.047Z,4.00
2019-01-09T15:44:30.887Z,3.90
2019-01-09T15:47:16.466Z,3.90
2019-01-09T15:50:02.410Z,4.00
2019-01-09T15:52:48.675Z,3.90
2019-01-09T15:55:35.390Z,3.90
2019-01-09T15:58:21.003Z,3.90
2019-01-09T16:01:06.727Z,3.90
2019-01-09T16:03:52.438Z,3.90
2019-01-09T16:06:37.753Z,3.90
2019-01-09T16:09:23.238Z,3.80
2019-01-09T16:12:08.738Z,3.80
2019-01-09T16:14:54.486Z,3.80
2019-01-09T16:17:40.474Z,3.80
2019-01-09T16:20:26.254Z,3.80
2019-01-09T16:23:12.432Z,3.90
2019-01-09T16:25:57.811Z,3.80
2019-01-09T16:28:43.525Z,3.80
2019-01-09T16:31:32.765Z,3.80
2019-01-09T16:34:18.768Z,3.80
2019-01-09T16:37:04.626Z,3.80
2019-01-09T16:39:50.514Z,3.90
2019-01-09T16:42:36.735Z,3.80
2019-01-09T16:45:22.355Z,3.80
2019-01-09T16:48:07.862Z,3.80
2019-01-09T16:50:54.015Z,3.80
2019-01-09T16:53:39.704Z,3.80
2019-01-09T16:56:26.084Z,3.80
2019-01-09T16:59:11.758Z,3.80
2019-01-09T17:01:57.667Z,3.80
2019-01-09T17:04:43.311Z,3.80
2019-01-09T17:07:29.254Z,3.80
2019-01-09T17:10:15.580Z,3.80
2019-01-09T17:13:01.206Z,3.80
2019-01-09T17:15:46.867Z,3.80
2019-01-09T17:18:32.847Z,3.80
2019-01-09T17:21:18.907Z,3.80
2019-01-09T17:24:04.829Z,3.80
2019-01-09T17:26:53.348Z,3.80
2019-01-09T17:29:39.463Z,3.80
2019-01-09T17:32:25.506Z,3.80
2019-01-09T17:35:11.651Z,3.80
2019-01-09T17:37:57.140Z,3.80
2019-01-09T17:40:43.649Z,3.80
2019-01-09T17:43:30.286Z,3.80
2019-01-09T17:46:15.692Z,3.80
2019-01-09T17:49:01.344Z,3.80
2019-01-09T17:51:47.231Z,3.80
2019-01-09T17:54:33.321Z,3.80
2019-01-09T17:57:19.622Z,3.80
2019-01-09T18:00:09.860Z,3.70
2019-01-09T18:02:56.774Z,3.80
2019-01-09T18:05:42.758Z,3.80
2019-01-09T18:08:29.769Z,3.80
2019-01-09T18:11:15.610Z,3.70
2019-01-09T18:14:01.782Z,3.80
2019-01-09T18:16:47.960Z,3.70
2019-01-09T18:19:34.008Z,3.70
2019-01-09T18:22:19.590Z,3.70
2019-01-09T18:25:07.405Z,3.70
2019-01-09T18:27:54.062Z,3.60
2019-01-09T18:31:23.368Z,3.60
2019-01-09T18:34:29.372Z,3.60
2019-01-09T18:37:41.335Z,3.60
2019-01-09T18:40:59.025Z,3.60
2019-01-09T18:44:04.178Z,3.60
2019-01-09T18:47:34.615Z,3.60
2019-01-09T18:51:01.318Z,3.60
2019-01-09T18:53:50.145Z,3.60
2019-01-09T18:56:36.140Z,3.60
2019-01-09T18:59:21.767Z,3.60
2019-01-09T19:02:08.086Z,3.60
2019-01-09T19:04:54.351Z,3.70
2019-01-09T19:07:42.008Z,3.60
2019-01-09T19:10:27.830Z,3.60
2019-01-09T19:13:14.690Z,3.60
2019-01-09T19:16:01.550Z,3.60
2019-01-09T19:18:48.334Z,3.50
2019-01-09T19:21:34.500Z,3.50
2019-01-09T19:24:20.550Z,3.50
2019-01-09T19:27:06.905Z,3.50
2019-01-09T19:29:53.614Z,3.50
2019-01-09T19:32:39.690Z,3.50
2019-01-09T19:35:26.577Z,3.40
2019-01-09T19:38:12.574Z,3.50
2019-01-09T19:40:59.738Z,3.50
2019-01-09T19:43:46.324Z,3.50
2019-01-09T19:46:32.310Z,3.50
2019-01-09T19:49:19.123Z,3.50
2019-01-09T19:52:05.561Z,3.50
2019-01-09T19:54:52.215Z,3.50
2019-01-09T19:57:38.851Z,3.50
2019-01-09T20:00:26.188Z,3.50
2019-01-09T20:03:12.800Z,3.50
2019-01-09T20:06:02.385Z,3.50
2019-01-09T20:08:51.277Z,3.50
2019-01-09T20:11:37.694Z,3.50
2019-01-09T20:14:24.139Z,3.50
2019-01-09T20:17:10.907Z,3.50
2019-01-09T20:19:57.684Z,3.40
2019-01-09T20:22:44.369Z,3.40
2019-01-09T20:25:30.563Z,3.30
2019-01-09T20:28:17.173Z,3.30
2019-01-09T20:31:03.782Z,3.30
2019-01-09T20:33:49.477Z,3.20
2019-01-09T20:36:35.494Z,3.20
2019-01-09T20:39:22.317Z,3.20
2019-01-09T20:42:08.558Z,3.30
2019-01-09T20:44:55.395Z,3.30
2019-01-09T20:47:42.417Z,3.30
2019-01-09T20:50:29.650Z,3.30
2019-01-09T20:53:15.235Z,3.30
2019-01-09T20:56:02.387Z,3.20
2019-01-09T20:58:48.515Z,3.20
2019-01-09T21:01:34.358Z,3.20
2019-01-09T21:04:19.903Z,3.20
2019-01-09T21:07:05.917Z,3.20
2019-01-09T21:09:54.256Z,3.20
2019-01-09T21:12:40.379Z,3.20
2019-01-09T21:15:26.265Z,3.30
2019-01-09T21:18:12.307Z,3.30
2019-01-09T21:20:57.895Z,3.30
2019-01-09T21:23:44.136Z,3.30
2019-01-09T21:26:30.496Z,3.30
2019-01-09T21:29:16.881Z,3.20
2019-01-09T21:32:04.489Z,3.30
2019-01-09T21:34:50.133Z,3.20
2019-01-09T21:37:36.086Z,3.20
2019-01-09T21:40:24.981Z,3.20
2019-01-09T21:43:10.699Z,3.20
2019-01-09T21:45:56.311Z,3.10
2019-01-09T21:48:42.712Z,3.10
2019-01-09T21:51:29.114Z,3.10
2019-01-09T21:54:15.171Z,3.10
2019-01-09T21:57:01.614Z,3.10
2019-01-09T21:59:47.675Z,3.10
2019-01-09T22:02:33.439Z,3.00
2019-01-09T22:05:20.913Z,3.00
2019-01-09T22:08:06.883Z,3.00
2019-01-09T22:10:52.779Z,2.90
2019-01-09T22:13:38.970Z,3.00
2019-01-09T22:16:24.663Z,2.90
2019-01-09T22:19:12.067Z,3.00
2019-01-09T22:21:58.039Z,2.90
2019-01-09T22:24:43.682Z,2.90
2019-01-09T22:27:29.309Z,2.90
2019-01-09T22:30:17.806Z,2.90
2019-01-09T22:33:03.609Z,2.90
2019-01-09T22:35:49.435Z,2.90
2019-01-09T22:38:35.491Z,2.80
2019-01-09T22:41:21.111Z,2.80
2019-01-09T22:44:07.277Z,2.80
2019-01-09T22:46:52.743Z,2.80
2019-01-09T22:49:38.701Z,2.80
2019-01-09T22:52:24.952Z,2.80
2019-01-09T22:55:11.002Z,2.80
2019-01-09T22:57:56.936Z,2.80
2019-01-09T23:01:10.009Z,2.80
2019-01-09T23:03:55.870Z,2.70
2019-01-09T23:06:44.031Z,2.80
2019-01-09T23:09:29.874Z,2.80
2019-01-09T23:12:21.167Z,2.80
2019-01-09T23:15:04.416Z,2.80
2019-01-09T23:17:50.092Z,2.80
2019-01-09T23:20:35.816Z,2.80
2019-01-09T23:23:22.330Z,2.80
2019-01-09T23:26:08.602Z,2.80
2019-01-09T23:28:54.838Z,2.80
2019-01-09T23:31:40.533Z,2.90
2019-01-09T23:34:27.475Z,3.00
2019-01-09T23:37:13.598Z,2.90
2019-01-09T23:39:59.350Z,2.80
2019-01-09T23:42:45.773Z,2.70
2019-01-09T23:45:31.563Z,2.70
2019-01-09T23:48:17.826Z,2.80
2019-01-09T23:51:03.713Z,2.70
2019-01-09T23:53:49.486Z,2.70
2019-01-09T23:56:35.254Z,2.70
2019-01-09T23:59:21.257Z,2.70
